createdAt,value
2022-11-03T00:02:04.849Z,9.17
2022-11-03T00:04:31.715Z,12.83
2022-11-03T00:06:58.497Z,8.37
2022-11-03T00:09:27.366Z,10.80
2022-11-03T00:11:54.474Z,12.17
2022-11-03T00:14:21.478Z,10.30
2022-11-03T00:16:48.578Z,8.80
2022-11-03T00:19:17.021Z,14.33
2022-11-03T00:21:44.338Z,10.30
2022-11-03T00:24:11.876Z,9.90
2022-11-03T00:26:39.361Z,11.97
2022-11-03T00:29:11.942Z,11.70
2022-11-03T00:31:41.002Z,6.80
2022-11-03T00:34:08.617Z,17.70
2022-11-03T00:36:43.913Z,8.93
2022-11-03T00:39:11.704Z,8.03
2022-11-03T00:41:39.039Z,10.40
2022-11-03T00:44:06.237Z,11.60
2022-11-03T00:46:35.541Z,8.57
2022-11-03T00:49:04.617Z,10.07
2022-11-03T00:51:34.308Z,8.90
2022-11-03T00:54:03.492Z,10.07
2022-11-03T00:56:41.461Z,9.40
2022-11-03T00:59:10.071Z,12.97
2022-11-03T01:01:45.216Z,11.73
2022-11-03T01:04:30.907Z,9.53
2022-11-03T01:07:00.608Z,10.13
2022-11-03T01:09:36.052Z,8.37
2022-11-03T01:12:16.151Z,11.57
2022-11-03T01:14:42.881Z,9.60
2022-11-03T01:17:12.349Z,10.03
2022-11-03T01:19:39.270Z,8.13
2022-11-03T01:22:09.610Z,7.93
2022-11-03T01:24:39.997Z,10.50
2022-11-03T01:27:07.281Z,8.73
2022-11-03T01:29:33.965Z,9.67
2022-11-03T01:32:00.782Z,9.10
2022-11-03T01:34:27.539Z,7.47
2022-11-03T01:36:54.427Z,8.57
2022-11-03T01:39:21.250Z,8.47
2022-11-03T01:41:50.853Z,9.30
2022-11-03T01:44:17.607Z,9.10
2022-11-03T01:46:54.841Z,7.40
2022-11-03T01:49:24.668Z,5.93
2022-11-03T01:51:57.854Z,9.27
2022-11-03T01:54:27.911Z,9.20
2022-11-03T01:56:55.438Z,7.80
2022-11-03T01:59:25.260Z,6.60
2022-11-03T02:02:11.378Z,8.63
2022-11-03T02:04:41.066Z,8.60
2022-11-03T02:07:10.502Z,10.03
2022-11-03T02:09:37.318Z,6.07
2022-11-03T02:12:07.644Z,7.80
2022-11-03T02:14:44.932Z,11.83
2022-11-03T02:17:14.000Z,6.83
2022-11-03T02:20:11.297Z,7.97
2022-11-03T02:23:12.430Z,7.37
2022-11-03T02:25:51.785Z,5.33
2022-11-03T02:28:30.158Z,7.83
2022-11-03T02:31:15.057Z,9.17
2022-11-03T02:33:52.758Z,7.43
2022-11-03T02:36:40.143Z,6.97
2022-11-03T02:39:21.069Z,5.77
2022-11-03T02:41:49.140Z,8.37
2022-11-03T02:44:19.772Z,10.43
2022-11-03T02:46:54.800Z,6.73
2022-11-03T02:49:21.790Z,10.73
2022-11-03T02:51:48.556Z,6.73
2022-11-03T02:54:26.216Z,8.30
2022-11-03T02:57:06.158Z,8.83
2022-11-03T02:59:50.012Z,9.80
2022-11-03T03:02:24.463Z,4.83
2022-11-03T03:04:55.892Z,8.83
2022-11-03T03:07:30.960Z,9.43
2022-11-03T03:10:04.098Z,7.70
2022-11-03T03:12:34.502Z,7.50
2022-11-03T03:15:03.825Z,6.77
2022-11-03T03:17:44.137Z,8.43
2022-11-03T03:20:37.449Z,7.10
2022-11-03T03:23:11.773Z,10.67
2022-11-03T03:25:45.681Z,8.50
2022-11-03T03:28:37.616Z,10.53
2022-11-03T03:31:07.899Z,11.87
2022-11-03T03:33:37.594Z,7.77
2022-11-03T03:36:09.838Z,6.50
2022-11-03T03:38:41.483Z,8.73
2022-11-03T03:41:11.689Z,8.33
2022-11-03T03:43:39.618Z,8.67
2022-11-03T03:46:10.368Z,7.10
2022-11-03T03:48:37.401Z,12.77
2022-11-03T03:51:06.527Z,9.10
2022-11-03T03:53:33.287Z,6.60
2022-11-03T03:56:00.122Z,6.17
2022-11-03T03:58:26.805Z,10.23
2022-11-03T04:00:53.730Z,7.63
2022-11-03T04:03:23.635Z,9.97
2022-11-03T04:05:51.063Z,8.17
2022-11-03T04:08:18.240Z,7.97
2022-11-03T04:11:06.028Z,8.43
2022-11-03T04:13:52.128Z,10.27
2022-11-03T04:16:37.504Z,14.17
2022-11-03T04:19:22.881Z,9.83
2022-11-03T04:22:08.498Z,7.47
2022-11-03T04:24:35.248Z,12.83
2022-11-03T04:27:16.586Z,9.20
2022-11-03T04:29:43.575Z,7.53
2022-11-03T04:32:16.558Z,8.50
2022-11-03T04:34:46.210Z,12.77
2022-11-03T04:37:13.934Z,10.50
2022-11-03T04:39:41.325Z,7.20
2022-11-03T04:42:17.297Z,9.93
2022-11-03T04:44:44.578Z,6.37
2022-11-03T04:47:13.555Z,9.83
2022-11-03T04:49:40.627Z,8.93
2022-11-03T04:52:15.376Z,8.20
2022-11-03T04:54:42.642Z,8.97
2022-11-03T04:57:13.757Z,8.73
2022-11-03T04:59:43.223Z,11.83
2022-11-03T05:02:13.285Z,6.00
2022-11-03T05:04:41.061Z,8.90
2022-11-03T05:07:22.375Z,9.87
2022-11-03T05:09:50.156Z,7.93
2022-11-03T05:12:18.795Z,6.87
2022-11-03T05:14:46.728Z,6.07
2022-11-03T05:17:32.706Z,12.07
2022-11-03T05:20:04.053Z,9.90
2022-11-03T05:22:37.997Z,8.30
2022-11-03T05:25:27.539Z,10.70
2022-11-03T05:27:54.294Z,11.50
2022-11-03T05:30:21.238Z,9.53
2022-11-03T05:32:47.998Z,7.67
2022-11-03T05:35:22.986Z,6.17
2022-11-03T05:37:50.905Z,4.90
2022-11-03T05:40:21.882Z,11.57
2022-11-03T05:42:56.315Z,5.43
2022-11-03T05:45:41.615Z,7.60
2022-11-03T05:48:20.879Z,8.03
2022-11-03T05:50:47.805Z,7.23
2022-11-03T05:53:39.173Z,10.20
2022-11-03T05:56:07.125Z,8.20
2022-11-03T05:58:36.080Z,9.87
2022-11-03T06:01:11.340Z,7.00
2022-11-03T06:03:38.871Z,9.20
2022-11-03T06:06:29.471Z,9.53
2022-11-03T06:09:03.412Z,9.10
2022-11-03T06:11:36.908Z,6.80
2022-11-03T06:14:22.856Z,6.83
2022-11-03T06:16:58.222Z,6.40
2022-11-03T06:19:48.079Z,7.07
2022-11-03T06:22:20.845Z,7.60
2022-11-03T06:24:48.026Z,11.23
2022-11-03T06:27:18.869Z,9.30
2022-11-03T06:29:57.634Z,7.47
2022-11-03T06:32:24.917Z,8.27
2022-11-03T06:34:57.576Z,5.57
2022-11-03T06:37:31.861Z,6.93
2022-11-03T06:40:05.900Z,7.67
2022-11-03T06:42:33.374Z,18.87
2022-11-03T06:45:02.679Z,59.93
2022-11-03T06:47:29.827Z,71.33
2022-11-03T06:50:00.509Z,38.97
2022-11-03T06:52:30.344Z,22.97
2022-11-03T06:55:13.680Z,12.10
2022-11-03T06:57:46.267Z,9.93
2022-11-03T07:00:34.118Z,13.63
2022-11-03T07:03:23.351Z,7.63
2022-11-03T07:05:50.250Z,8.63
2022-11-03T07:08:31.429Z,10.57
2022-11-03T07:11:14.803Z,11.60
2022-11-03T07:13:42.867Z,13.07
2022-11-03T07:16:21.753Z,9.13
2022-11-03T07:18:49.065Z,11.37
2022-11-03T07:21:40.712Z,13.50
2022-11-03T07:24:29.689Z,10.53
2022-11-03T07:27:29.156Z,9.73
2022-11-03T07:30:21.320Z,9.37
2022-11-03T07:32:51.930Z,12.67
2022-11-03T07:35:18.724Z,9.40
2022-11-03T07:37:47.614Z,8.27
2022-11-03T07:40:18.514Z,10.67
2022-11-03T07:42:53.026Z,8.90
2022-11-03T07:45:40.340Z,8.47
2022-11-03T07:48:27.464Z,10.63
2022-11-03T07:50:56.746Z,9.20
2022-11-03T07:53:32.386Z,10.83
2022-11-03T07:55:59.818Z,10.80
2022-11-03T07:58:36.923Z,6.80
2022-11-03T08:01:28.169Z,13.30
2022-11-03T08:04:00.977Z,13.00
2022-11-03T08:06:28.072Z,16.77
2022-11-03T08:08:54.845Z,17.30
2022-11-03T08:11:26.105Z,15.00
2022-11-03T08:13:56.040Z,13.10
2022-11-03T08:16:22.843Z,15.07
2022-11-03T08:18:49.661Z,11.43
2022-11-03T08:21:17.478Z,20.83
2022-11-03T08:23:47.286Z,15.43
2022-11-03T08:26:15.615Z,12.40
2022-11-03T08:28:43.170Z,18.50
2022-11-03T08:31:12.948Z,22.90
2022-11-03T08:33:41.042Z,12.60
2022-11-03T08:36:11.196Z,16.40
2022-11-03T08:38:38.645Z,13.70
2022-11-03T08:41:06.007Z,16.60
2022-11-03T08:43:32.931Z,16.23
2022-11-03T08:46:08.333Z,14.80
2022-11-03T08:48:42.676Z,14.07
2022-11-03T08:51:10.486Z,12.43
2022-11-03T08:53:38.650Z,10.17
2022-11-03T08:56:10.325Z,10.30
2022-11-03T08:58:39.490Z,11.83
2022-11-03T09:01:06.272Z,13.83
2022-11-03T09:03:33.136Z,14.57
2022-11-03T09:05:59.959Z,11.73
2022-11-03T09:11:13.497Z,9.63
2022-11-03T09:13:40.289Z,10.43
2022-11-03T09:16:07.508Z,10.37
2022-11-03T09:18:34.276Z,9.20
2022-11-03T09:21:01.200Z,10.00
2022-11-03T09:23:28.150Z,10.93
2022-11-03T09:25:54.936Z,13.20
2022-11-03T09:28:21.765Z,9.00
2022-11-03T09:30:48.573Z,7.33
2022-11-03T09:33:16.042Z,8.33
2022-11-03T09:35:42.889Z,7.63
2022-11-03T09:38:09.942Z,8.37
2022-11-03T09:40:37.074Z,7.57
2022-11-03T09:43:04.552Z,6.90
2022-11-03T09:45:32.262Z,6.00
2022-11-03T09:47:59.240Z,5.00
2022-11-03T09:50:26.173Z,5.33
2022-11-03T09:52:54.451Z,4.13
2022-11-03T09:55:25.899Z,5.47
2022-11-03T09:57:55.346Z,5.37
2022-11-03T10:00:24.228Z,5.17
2022-11-03T10:02:51.411Z,7.33
2022-11-03T10:05:25.651Z,6.80
2022-11-03T10:08:02.052Z,6.90
2022-11-03T10:10:29.366Z,3.23
2022-11-03T10:12:56.495Z,3.50
2022-11-03T10:15:25.210Z,3.30
2022-11-03T10:17:53.219Z,5.37
2022-11-03T10:20:22.376Z,3.10
2022-11-03T10:22:52.942Z,7.53
2022-11-03T10:25:37.750Z,4.53
2022-11-03T10:28:28.978Z,3.60
2022-11-03T10:31:14.456Z,3.20
2022-11-03T10:34:01.979Z,4.03
2022-11-03T10:36:31.205Z,3.33
2022-11-03T10:38:58.536Z,3.93
2022-11-03T10:41:27.575Z,4.43
2022-11-03T10:44:12.758Z,4.47
2022-11-03T10:46:56.064Z,3.47
2022-11-03T10:49:23.103Z,4.37
2022-11-03T10:51:52.977Z,4.80
2022-11-03T10:54:22.879Z,4.13
2022-11-03T10:56:51.826Z,4.57
2022-11-03T10:59:21.393Z,7.53
2022-11-03T11:01:48.709Z,7.30
2022-11-03T11:04:21.036Z,4.77
2022-11-03T11:06:48.543Z,3.67
2022-11-03T11:09:27.506Z,4.47
2022-11-03T11:12:07.043Z,3.90
2022-11-03T11:14:38.144Z,3.13
2022-11-03T11:17:06.320Z,4.40
2022-11-03T11:20:11.574Z,4.33
2022-11-03T11:22:38.419Z,5.10
2022-11-03T11:25:05.279Z,3.03
2022-11-03T11:27:32.047Z,3.47
2022-11-03T11:29:59.999Z,2.80
2022-11-03T11:32:45.088Z,2.93
2022-11-03T11:35:36.390Z,5.10
2022-11-03T11:38:41.053Z,2.87
2022-11-03T11:41:07.886Z,4.13
2022-11-03T11:43:34.613Z,5.27
2022-11-03T11:46:23.135Z,4.10
2022-11-03T11:48:57.245Z,3.33
2022-11-03T11:51:25.076Z,5.90
2022-11-03T11:54:09.933Z,4.07
2022-11-03T11:56:48.817Z,3.27
2022-11-03T11:59:25.608Z,6.07
2022-11-03T12:01:55.559Z,4.27
2022-11-03T12:04:31.689Z,4.67
2022-11-03T12:06:59.517Z,6.17
2022-11-03T12:09:27.812Z,5.77
2022-11-03T12:11:59.250Z,3.07
2022-11-03T12:14:37.998Z,6.10
2022-11-03T12:17:17.209Z,3.80
2022-11-03T12:19:54.791Z,3.33
2022-11-03T12:22:24.699Z,4.77
2022-11-03T12:24:51.552Z,5.23
2022-11-03T12:27:24.300Z,3.40
2022-11-03T12:29:59.534Z,6.27
2022-11-03T12:32:33.471Z,3.20
2022-11-03T12:35:02.458Z,3.57
2022-11-03T12:37:29.209Z,3.57
2022-11-03T12:39:56.012Z,4.50
2022-11-03T12:42:25.259Z,2.97
2022-11-03T12:44:54.190Z,6.13
2022-11-03T12:47:21.384Z,4.57
2022-11-03T12:49:48.313Z,2.60
2022-11-03T12:52:15.519Z,2.73
2022-11-03T12:54:42.647Z,3.00
2022-11-03T12:57:09.731Z,6.30
2022-11-03T12:59:36.808Z,3.43
2022-11-03T13:02:04.112Z,4.20
2022-11-03T13:04:31.186Z,3.50
2022-11-03T13:06:58.016Z,3.00
2022-11-03T13:09:24.859Z,8.47
2022-11-03T13:12:10.060Z,2.23
2022-11-03T13:14:36.888Z,4.10
2022-11-03T13:17:03.968Z,3.50
2022-11-03T13:19:30.960Z,3.67
2022-11-03T13:21:57.738Z,3.17
2022-11-03T13:24:24.441Z,4.73
2022-11-03T13:26:51.320Z,3.57
2022-11-03T13:29:18.129Z,4.13
2022-11-03T13:31:45.005Z,3.87
2022-11-03T13:34:11.753Z,3.10
2022-11-03T13:36:38.556Z,3.23
2022-11-03T13:39:05.413Z,4.80
2022-11-03T13:41:32.177Z,3.47
2022-11-03T13:43:59.205Z,5.80
2022-11-03T13:46:26.002Z,4.30
2022-11-03T13:49:43.838Z,4.33
2022-11-03T13:51:39.980Z,6.37
2022-11-03T13:59:40.604Z,4.07
2022-11-03T14:04:54.242Z,4.17
2022-11-03T14:07:21.021Z,5.13
2022-11-03T14:09:47.721Z,6.23
2022-11-03T14:12:32.936Z,5.43
2022-11-03T14:15:01.403Z,9.47
2022-11-03T14:17:28.873Z,5.70
2022-11-03T14:19:59.316Z,6.67
2022-11-03T14:22:30.804Z,5.50
2022-11-03T14:24:57.569Z,6.50
2022-11-03T14:27:25.244Z,4.23
2022-11-03T14:29:52.166Z,4.80
2022-11-03T14:32:19.528Z,5.33
2022-11-03T14:34:47.784Z,4.67
2022-11-03T14:37:15.254Z,10.33
2022-11-03T14:39:42.370Z,6.30
2022-11-03T14:42:17.313Z,4.43
2022-11-03T14:44:47.868Z,6.57
2022-11-03T14:47:18.831Z,3.53
2022-11-03T14:49:46.430Z,5.97
2022-11-03T14:52:14.768Z,5.13
2022-11-03T14:54:42.056Z,4.03
2022-11-03T14:57:09.832Z,4.13
2022-11-03T14:59:36.823Z,4.37
2022-11-03T15:02:04.677Z,4.40
2022-11-03T15:04:31.772Z,4.20
2022-11-03T15:06:58.723Z,4.80
2022-11-03T15:09:25.636Z,5.17
2022-11-03T15:11:52.544Z,5.53
2022-11-03T15:14:19.986Z,4.43
2022-11-03T15:16:46.882Z,7.93
2022-11-03T15:19:13.745Z,7.53
2022-11-03T15:21:40.673Z,4.50
2022-11-03T15:26:54.316Z,4.30
2022-11-03T15:29:22.925Z,4.37
2022-11-03T15:31:49.975Z,4.33
2022-11-03T15:34:16.860Z,4.80
2022-11-03T15:36:43.662Z,5.07
2022-11-03T15:39:10.472Z,6.73
2022-11-03T15:41:37.299Z,4.90
2022-11-03T15:44:04.177Z,7.33
2022-11-03T15:46:30.899Z,6.67
2022-11-03T15:48:57.778Z,6.57
2022-11-03T15:51:24.951Z,6.37
2022-11-03T15:53:57.886Z,8.10
2022-11-03T15:56:29.675Z,9.70
2022-11-03T15:58:56.597Z,5.23
2022-11-03T16:01:23.549Z,4.93
2022-11-03T16:03:51.080Z,7.27
2022-11-03T16:06:17.855Z,6.37
2022-11-03T16:08:45.119Z,4.90
2022-11-03T16:11:11.991Z,8.30
2022-11-03T16:13:39.548Z,8.73
2022-11-03T16:16:07.118Z,7.17
2022-11-03T16:18:34.700Z,5.13
2022-11-03T16:21:01.476Z,7.37
2022-11-03T16:23:28.202Z,5.27
2022-11-03T16:25:55.345Z,5.63
2022-11-03T16:28:22.158Z,7.17
2022-11-03T16:30:54.078Z,7.33
2022-11-03T16:33:21.553Z,6.00
2022-11-03T16:35:48.461Z,7.83
2022-11-03T16:38:15.683Z,7.13
2022-11-03T16:40:46.215Z,7.77
2022-11-03T16:43:13.048Z,7.27
2022-11-03T16:45:39.745Z,9.57
2022-11-03T16:48:07.497Z,6.20
2022-11-03T16:50:34.752Z,7.73
2022-11-03T16:53:01.623Z,9.63
2022-11-03T16:55:28.539Z,10.30
2022-11-03T16:57:55.618Z,9.67
2022-11-03T17:00:23.997Z,6.97
2022-11-03T17:02:51.056Z,7.03
2022-11-03T17:05:20.748Z,8.57
2022-11-03T17:07:53.260Z,6.77
2022-11-03T17:10:21.235Z,10.07
2022-11-03T17:12:48.022Z,8.10
2022-11-03T17:15:14.962Z,7.07
2022-11-03T17:17:41.728Z,7.87
2022-11-03T17:20:10.699Z,9.13
2022-11-03T17:22:37.796Z,8.47
2022-11-03T17:25:05.976Z,9.37
2022-11-03T17:27:43.387Z,8.03
2022-11-03T17:30:31.109Z,8.97
2022-11-03T17:33:05.689Z,9.03
2022-11-03T17:35:39.698Z,9.47
2022-11-03T17:38:13.714Z,9.40
2022-11-03T17:40:42.586Z,11.83
2022-11-03T17:43:22.680Z,7.20
2022-11-03T17:45:49.946Z,9.17
2022-11-03T17:48:16.979Z,9.27
2022-11-03T17:50:49.250Z,10.43
2022-11-03T17:53:31.963Z,11.80
2022-11-03T17:56:29.496Z,11.27
2022-11-03T17:58:47.992Z,6.03
2022-11-03T18:01:24.248Z,12.33
2022-11-03T18:03:52.101Z,7.50
2022-11-03T18:06:20.573Z,9.00
2022-11-03T18:08:48.460Z,8.67
2022-11-03T18:11:42.036Z,10.40
2022-11-03T18:14:08.873Z,10.43
2022-11-03T18:16:35.789Z,12.50
2022-11-03T18:19:02.542Z,11.70
2022-11-03T18:21:30.216Z,12.13
2022-11-03T18:23:56.903Z,11.00
2022-11-03T18:26:25.930Z,11.70
2022-11-03T18:28:53.862Z,9.73
2022-11-03T18:31:22.652Z,9.60
2022-11-03T18:33:50.122Z,10.43
2022-11-03T18:36:17.923Z,8.03
2022-11-03T18:38:45.611Z,13.30
2022-11-03T18:41:36.129Z,15.07
2022-11-03T18:44:10.156Z,13.47
2022-11-03T18:46:36.926Z,11.83
2022-11-03T18:49:03.918Z,11.37
2022-11-03T18:51:30.648Z,12.43
2022-11-03T18:53:57.390Z,11.43
2022-11-03T18:56:24.265Z,8.80
2022-11-03T18:58:53.869Z,11.20
2022-11-03T19:01:23.604Z,13.70
2022-11-03T19:03:50.619Z,10.27
2022-11-03T19:06:17.825Z,13.03
2022-11-03T19:08:46.404Z,14.17
2022-11-03T19:11:14.373Z,9.13
2022-11-03T19:13:44.398Z,9.47
2022-11-03T19:16:21.479Z,10.03
2022-11-03T19:18:49.243Z,10.27
2022-11-03T19:21:20.941Z,11.93
2022-11-03T19:23:49.060Z,11.03
2022-11-03T19:26:30.779Z,11.13
2022-11-03T19:29:02.070Z,9.83
2022-11-03T19:31:35.723Z,13.20
2022-11-03T19:34:03.560Z,10.43
2022-11-03T19:36:31.489Z,8.43
2022-11-03T19:39:00.250Z,12.00
2022-11-03T19:41:45.488Z,12.90
2022-11-03T19:44:13.602Z,12.17
2022-11-03T19:46:42.139Z,9.30
2022-11-03T19:49:14.072Z,12.20
2022-11-03T19:51:41.062Z,12.77
2022-11-03T19:54:15.465Z,11.07
2022-11-03T19:56:42.596Z,15.60
2022-11-03T19:59:12.939Z,15.80
2022-11-03T20:01:40.014Z,13.97
2022-11-03T20:04:07.547Z,9.87
2022-11-03T20:06:40.992Z,9.07
2022-11-03T20:09:10.956Z,10.53
2022-11-03T20:11:37.732Z,13.50
2022-11-03T20:14:04.747Z,14.37
2022-11-03T20:16:31.736Z,16.27
2022-11-03T20:18:58.501Z,16.17
2022-11-03T20:21:30.098Z,14.43
2022-11-03T20:24:00.989Z,16.67
2022-11-03T20:26:28.801Z,20.93
2022-11-03T20:28:57.998Z,12.83
2022-11-03T20:31:24.951Z,10.63
2022-11-03T20:33:51.692Z,9.17
2022-11-03T20:36:19.962Z,14.20
2022-11-03T20:38:51.950Z,31.47
2022-11-03T20:41:18.863Z,57.03
2022-11-03T20:43:47.827Z,24.60
2022-11-03T20:46:21.048Z,23.77
2022-11-03T20:48:48.047Z,15.97
2022-11-03T20:51:16.576Z,9.60
2022-11-03T20:53:43.392Z,8.37
2022-11-03T20:56:23.126Z,9.67
2022-11-03T20:58:50.097Z,7.37
2022-11-03T21:01:21.178Z,9.10
2022-11-03T21:04:03.372Z,8.07
2022-11-03T21:06:32.417Z,10.43
2022-11-03T21:09:00.048Z,10.80
2022-11-03T21:11:29.786Z,10.67
2022-11-03T21:14:12.964Z,10.37
2022-11-03T21:16:58.320Z,11.37
2022-11-03T21:19:42.896Z,12.37
2022-11-03T21:22:51.281Z,11.63
2022-11-03T21:25:17.325Z,9.00
2022-11-03T21:27:44.610Z,10.97
2022-11-03T21:30:13.136Z,11.60
2022-11-03T21:32:40.263Z,14.23
2022-11-03T21:35:08.132Z,10.43
2022-11-03T21:37:36.047Z,11.70
2022-11-03T21:40:02.819Z,9.53
2022-11-03T21:42:48.089Z,9.73
2022-11-03T21:45:15.843Z,10.53
2022-11-03T21:48:02.619Z,8.03
2022-11-03T21:50:29.335Z,13.37
2022-11-03T21:52:57.531Z,11.97
2022-11-03T21:55:24.652Z,9.03
2022-11-03T21:57:51.511Z,13.00
2022-11-03T22:00:18.506Z,8.57
2022-11-03T22:02:45.256Z,9.93
2022-11-03T22:05:12.045Z,11.23
2022-11-03T22:07:38.843Z,9.40
2022-11-03T22:10:06.157Z,11.07
2022-11-03T22:12:32.865Z,13.67
2022-11-03T22:15:18.381Z,12.53
2022-11-03T22:17:45.374Z,8.77
2022-11-03T22:20:30.725Z,12.27
2022-11-03T22:23:19.326Z,10.73
2022-11-03T22:26:05.996Z,7.60
2022-11-03T22:28:32.770Z,9.57
2022-11-03T22:31:17.851Z,7.90
2022-11-03T22:34:03.361Z,8.97
2022-11-03T22:36:30.276Z,12.37
2022-11-03T22:39:15.552Z,16.47
2022-11-03T22:42:05.896Z,8.63
2022-11-03T22:44:51.625Z,8.10
2022-11-03T22:47:19.037Z,8.10
2022-11-03T22:49:45.932Z,9.73
2022-11-03T22:52:12.779Z,8.17
2022-11-03T22:54:39.503Z,10.13
2022-11-03T22:57:07.764Z,11.67
2022-11-03T22:59:34.492Z,8.57
2022-11-03T23:02:01.326Z,8.10
2022-11-03T23:04:28.267Z,8.47
2022-11-03T23:06:55.064Z,7.80
2022-11-03T23:09:21.785Z,5.43
2022-11-03T23:11:48.472Z,7.80
2022-11-03T23:14:15.900Z,4.87
2022-11-03T23:16:44.469Z,4.23
2022-11-03T23:19:31.598Z,5.40
2022-11-03T23:21:58.789Z,7.70
2022-11-03T23:24:45.554Z,5.03
2022-11-03T23:27:13.745Z,6.37
2022-11-03T23:29:40.819Z,4.73
2022-11-03T23:32:07.767Z,5.17
2022-11-03T23:34:35.227Z,7.07
2022-11-03T23:37:02.763Z,7.33
2022-11-03T23:39:29.470Z,5.63
2022-11-03T23:41:56.399Z,5.23
2022-11-03T23:44:23.140Z,4.60
2022-11-03T23:47:08.583Z,4.97
2022-11-03T23:49:35.308Z,8.63
2022-11-03T23:52:01.985Z,5.27
2022-11-03T23:54:28.750Z,4.87
2022-11-03T23:57:13.914Z,4.93
2022-11-03T23:59:40.672Z,5.87
